sensor_id;sensor_type;location;lat;lon;timestamp;P1;durP1;ratioP1;P2;durP2;ratioP2
9306;SDS011;4691;47.612;7.610;2023-06-22T00:01:38;30.48;;;14.10;;
9306;SDS011;4691;47.612;7.610;2023-06-22T00:04:04;30.67;;;13.02;;
9306;SDS011;4691;47.612;7.610;2023-06-22T00:06:32;32.10;;;13.10;;
9306;SDS011;4691;47.612;7.610;2023-06-22T00:08:58;34.95;;;13.30;;
9306;SDS011;4691;47.612;7.610;2023-06-22T00:11:26;29.70;;;14.30;;
9306;SDS011;4691;47.612;7.610;2023-06-22T00:14:05;29.15;;;13.63;;
9306;SDS011;4691;47.612;7.610;2023-06-22T00:16:40;37.85;;;16.23;;
9306;SDS011;4691;47.612;7.610;2023-06-22T00:19:11;35.42;;;15.32;;
9306;SDS011;4691;47.612;7.610;2023-06-22T00:21:50;33.50;;;15.00;;
9306;SDS011;4691;47.612;7.610;2023-06-22T00:24:19;32.95;;;14.07;;
9306;SDS011;4691;47.612;7.610;2023-06-22T00:26:45;32.42;;;14.73;;
9306;SDS011;4691;47.612;7.610;2023-06-22T00:29:15;34.25;;;14.93;;
9306;SDS011;4691;47.612;7.610;2023-06-22T00:31:46;42.50;;;16.17;;
9306;SDS011;4691;47.612;7.610;2023-06-22T00:34:12;49.22;;;15.43;;
9306;SDS011;4691;47.612;7.610;2023-06-22T00:36:53;34.55;;;15.25;;
9306;SDS011;4691;47.612;7.610;2023-06-22T00:39:24;29.80;;;14.38;;
9306;SDS011;4691;47.612;7.610;2023-06-22T00:41:50;35.70;;;15.60;;
9306;SDS011;4691;47.612;7.610;2023-06-22T00:44:21;37.40;;;15.38;;
9306;SDS011;4691;47.612;7.610;2023-06-22T00:46:53;41.63;;;17.67;;
9306;SDS011;4691;47.612;7.610;2023-06-22T00:49:24;35.60;;;16.27;;
9306;SDS011;4691;47.612;7.610;2023-06-22T00:51:55;30.52;;;15.30;;
9306;SDS011;4691;47.612;7.610;2023-06-22T00:54:30;44.25;;;17.08;;
9306;SDS011;4691;47.612;7.610;2023-06-22T00:57:12;39.65;;;17.40;;
9306;SDS011;4691;47.612;7.610;2023-06-22T00:59:44;31.52;;;16.75;;
9306;SDS011;4691;47.612;7.610;2023-06-22T01:02:17;37.15;;;17.75;;
9306;SDS011;4691;47.612;7.610;2023-06-22T01:04:50;33.50;;;17.33;;
9306;SDS011;4691;47.612;7.610;2023-06-22T01:13:00;42.58;;;19.88;;
9306;SDS011;4691;47.612;7.610;2023-06-22T01:15:53;44.50;;;18.45;;
9306;SDS011;4691;47.612;7.610;2023-06-22T01:18:33;38.88;;;19.58;;
9306;SDS011;4691;47.612;7.610;2023-06-22T01:21:07;36.85;;;18.20;;
9306;SDS011;4691;47.612;7.610;2023-06-22T01:23:54;37.60;;;18.45;;
9306;SDS011;4691;47.612;7.610;2023-06-22T01:26:42;47.08;;;19.02;;
9306;SDS011;4691;47.612;7.610;2023-06-22T01:29:30;50.47;;;20.17;;
9306;SDS011;4691;47.612;7.610;2023-06-22T01:32:07;39.55;;;20.00;;
9306;SDS011;4691;47.612;7.610;2023-06-22T01:34:40;39.53;;;20.10;;
9306;SDS011;4691;47.612;7.610;2023-06-22T01:37:06;52.20;;;21.63;;
9306;SDS011;4691;47.612;7.610;2023-06-22T01:39:43;48.75;;;20.95;;
9306;SDS011;4691;47.612;7.610;2023-06-22T01:42:12;40.20;;;21.38;;
9306;SDS011;4691;47.612;7.610;2023-06-22T01:44:41;43.83;;;21.00;;
9306;SDS011;4691;47.612;7.610;2023-06-22T01:47:16;41.38;;;21.08;;
9306;SDS011;4691;47.612;7.610;2023-06-22T01:49:51;52.30;;;21.90;;
9306;SDS011;4691;47.612;7.610;2023-06-22T01:52:17;46.53;;;22.02;;
9306;SDS011;4691;47.612;7.610;2023-06-22T01:54:54;48.38;;;22.08;;
9306;SDS011;4691;47.612;7.610;2023-06-22T01:57:35;44.67;;;21.90;;
9306;SDS011;4691;47.612;7.610;2023-06-22T02:00:04;43.30;;;21.38;;
9306;SDS011;4691;47.612;7.610;2023-06-22T02:02:56;42.22;;;20.75;;
9306;SDS011;4691;47.612;7.610;2023-06-22T02:05:28;49.22;;;21.73;;
9306;SDS011;4691;47.612;7.610;2023-06-22T02:08:07;40.92;;;21.15;;
9306;SDS011;4691;47.612;7.610;2023-06-22T02:10:51;40.92;;;21.42;;
9306;SDS011;4691;47.612;7.610;2023-06-22T02:13:21;45.33;;;20.95;;
9306;SDS011;4691;47.612;7.610;2023-06-22T02:15:57;42.45;;;20.20;;
9306;SDS011;4691;47.612;7.610;2023-06-22T02:19:35;40.53;;;19.80;;
9306;SDS011;4691;47.612;7.610;2023-06-22T02:22:04;41.67;;;19.58;;
9306;SDS011;4691;47.612;7.610;2023-06-22T02:24:39;40.35;;;18.30;;
9306;SDS011;4691;47.612;7.610;2023-06-22T02:27:14;39.47;;;19.08;;
9306;SDS011;4691;47.612;7.610;2023-06-22T02:29:42;33.67;;;17.85;;
9306;SDS011;4691;47.612;7.610;2023-06-22T02:32:07;37.38;;;18.48;;
9306;SDS011;4691;47.612;7.610;2023-06-22T02:34:53;38.65;;;17.80;;
9306;SDS011;4691;47.612;7.610;2023-06-22T02:37:18;41.30;;;18.15;;
9306;SDS011;4691;47.612;7.610;2023-06-22T02:40:08;39.15;;;18.55;;
9306;SDS011;4691;47.612;7.610;2023-06-22T02:42:41;37.05;;;18.15;;
9306;SDS011;4691;47.612;7.610;2023-06-22T02:45:12;42.17;;;19.10;;
9306;SDS011;4691;47.612;7.610;2023-06-22T02:47:41;41.10;;;19.73;;
9306;SDS011;4691;47.612;7.610;2023-06-22T02:50:06;38.17;;;19.10;;
9306;SDS011;4691;47.612;7.610;2023-06-22T02:52:43;37.10;;;20.88;;
9306;SDS011;4691;47.612;7.610;2023-06-22T02:55:19;37.25;;;20.95;;
9306;SDS011;4691;47.612;7.610;2023-06-22T02:57:57;41.83;;;20.27;;
9306;SDS011;4691;47.612;7.610;2023-06-22T03:00:27;33.20;;;19.27;;
9306;SDS011;4691;47.612;7.610;2023-06-22T03:02:55;38.42;;;20.58;;
9306;SDS011;4691;47.612;7.610;2023-06-22T03:05:23;39.30;;;20.35;;
9306;SDS011;4691;47.612;7.610;2023-06-22T03:07:52;40.78;;;20.67;;
9306;SDS011;4691;47.612;7.610;2023-06-22T03:10:25;37.85;;;21.60;;
9306;SDS011;4691;47.612;7.610;2023-06-22T03:12:52;38.80;;;20.92;;
9306;SDS011;4691;47.612;7.610;2023-06-22T03:15:18;40.92;;;21.40;;
9306;SDS011;4691;47.612;7.610;2023-06-22T03:17:54;41.13;;;20.90;;
9306;SDS011;4691;47.612;7.610;2023-06-22T03:20:22;38.90;;;21.40;;
9306;SDS011;4691;47.612;7.610;2023-06-22T03:23:04;36.17;;;21.67;;
9306;SDS011;4691;47.612;7.610;2023-06-22T03:25:30;39.10;;;20.90;;
9306;SDS011;4691;47.612;7.610;2023-06-22T03:28:04;46.70;;;20.87;;
9306;SDS011;4691;47.612;7.610;2023-06-22T03:30:30;37.08;;;20.60;;
9306;SDS011;4691;47.612;7.610;2023-06-22T03:32:59;38.37;;;21.60;;
9306;SDS011;4691;47.612;7.610;2023-06-22T03:35:29;42.17;;;20.42;;
9306;SDS011;4691;47.612;7.610;2023-06-22T03:37:58;42.80;;;21.98;;
9306;SDS011;4691;47.612;7.610;2023-06-22T03:40:26;41.30;;;21.38;;
9306;SDS011;4691;47.612;7.610;2023-06-22T03:42:54;39.72;;;21.23;;
9306;SDS011;4691;47.612;7.610;2023-06-22T03:45:20;42.92;;;22.05;;
9306;SDS011;4691;47.612;7.610;2023-06-22T03:47:48;42.83;;;21.30;;
9306;SDS011;4691;47.612;7.610;2023-06-22T03:50:19;46.55;;;20.60;;
9306;SDS011;4691;47.612;7.610;2023-06-22T03:52:51;44.30;;;19.77;;
9306;SDS011;4691;47.612;7.610;2023-06-22T03:55:19;36.15;;;18.50;;
9306;SDS011;4691;47.612;7.610;2023-06-22T03:57:51;40.55;;;18.35;;
9306;SDS011;4691;47.612;7.610;2023-06-22T04:00:18;40.03;;;18.75;;
9306;SDS011;4691;47.612;7.610;2023-06-22T04:02:51;46.13;;;18.67;;
9306;SDS011;4691;47.612;7.610;2023-06-22T04:07:53;35.80;;;18.92;;
9306;SDS011;4691;47.612;7.610;2023-06-22T04:10:21;41.20;;;19.35;;
9306;SDS011;4691;47.612;7.610;2023-06-22T04:12:49;33.53;;;18.85;;
9306;SDS011;4691;47.612;7.610;2023-06-22T04:15:26;40.40;;;18.88;;
9306;SDS011;4691;47.612;7.610;2023-06-22T04:17:57;44.72;;;19.92;;
9306;SDS011;4691;47.612;7.610;2023-06-22T04:20:23;43.55;;;20.63;;
9306;SDS011;4691;47.612;7.610;2023-06-22T04:23:00;40.53;;;19.65;;
9306;SDS011;4691;47.612;7.610;2023-06-22T04:25:31;40.67;;;20.42;;
9306;SDS011;4691;47.612;7.610;2023-06-22T04:27:58;40.05;;;20.45;;
9306;SDS011;4691;47.612;7.610;2023-06-22T04:30:31;44.55;;;21.38;;
9306;SDS011;4691;47.612;7.610;2023-06-22T04:35:26;36.58;;;19.98;;
9306;SDS011;4691;47.612;7.610;2023-06-22T04:40:59;35.22;;;19.98;;
9306;SDS011;4691;47.612;7.610;2023-06-22T04:43:47;36.28;;;20.20;;
9306;SDS011;4691;47.612;7.610;2023-06-22T04:46:26;34.78;;;20.55;;
9306;SDS011;4691;47.612;7.610;2023-06-22T04:49:03;39.40;;;20.48;;
9306;SDS011;4691;47.612;7.610;2023-06-22T04:51:47;40.58;;;21.58;;
9306;SDS011;4691;47.612;7.610;2023-06-22T04:54:24;41.50;;;20.92;;
9306;SDS011;4691;47.612;7.610;2023-06-22T04:57:04;43.10;;;21.77;;
9306;SDS011;4691;47.612;7.610;2023-06-22T04:59:44;46.05;;;21.77;;
9306;SDS011;4691;47.612;7.610;2023-06-22T05:02:17;42.67;;;21.05;;
9306;SDS011;4691;47.612;7.610;2023-06-22T05:04:49;39.95;;;21.48;;
9306;SDS011;4691;47.612;7.610;2023-06-22T05:07:51;38.38;;;20.95;;
9306;SDS011;4691;47.612;7.610;2023-06-22T05:10:44;43.03;;;21.90;;
9306;SDS011;4691;47.612;7.610;2023-06-22T05:13:15;42.85;;;21.42;;
9306;SDS011;4691;47.612;7.610;2023-06-22T05:15:41;39.65;;;21.23;;
9306;SDS011;4691;47.612;7.610;2023-06-22T05:18:18;41.85;;;22.77;;
9306;SDS011;4691;47.612;7.610;2023-06-22T05:20:52;44.33;;;23.52;;
9306;SDS011;4691;47.612;7.610;2023-06-22T05:23:21;45.80;;;22.92;;
9306;SDS011;4691;47.612;7.610;2023-06-22T05:25:55;43.47;;;22.92;;
9306;SDS011;4691;47.612;7.610;2023-06-22T05:28:35;45.90;;;23.33;;
9306;SDS011;4691;47.612;7.610;2023-06-22T05:31:06;46.13;;;24.83;;
9306;SDS011;4691;47.612;7.610;2023-06-22T05:33:37;46.47;;;24.98;;
9306;SDS011;4691;47.612;7.610;2023-06-22T05:36:23;37.33;;;23.58;;
9306;SDS011;4691;47.612;7.610;2023-06-22T05:39:10;52.87;;;24.20;;
9306;SDS011;4691;47.612;7.610;2023-06-22T05:41:39;52.17;;;23.50;;
9306;SDS011;4691;47.612;7.610;2023-06-22T05:44:09;44.67;;;23.50;;
9306;SDS011;4691;47.612;7.610;2023-06-22T05:46:42;42.55;;;23.55;;
9306;SDS011;4691;47.612;7.610;2023-06-22T05:49:16;49.13;;;23.75;;
9306;SDS011;4691;47.612;7.610;2023-06-22T05:51:58;44.50;;;21.80;;
9306;SDS011;4691;47.612;7.610;2023-06-22T05:54:34;38.13;;;20.30;;
9306;SDS011;4691;47.612;7.610;2023-06-22T05:57:00;41.90;;;21.45;;
9306;SDS011;4691;47.612;7.610;2023-06-22T05:59:26;40.72;;;20.95;;
9306;SDS011;4691;47.612;7.610;2023-06-22T06:01:52;38.67;;;20.70;;
9306;SDS011;4691;47.612;7.610;2023-06-22T06:04:35;49.60;;;22.13;;
9306;SDS011;4691;47.612;7.610;2023-06-22T06:07:04;40.40;;;21.60;;
9306;SDS011;4691;47.612;7.610;2023-06-22T06:09:35;43.45;;;22.17;;
9306;SDS011;4691;47.612;7.610;2023-06-22T06:12:03;42.33;;;21.20;;
9306;SDS011;4691;47.612;7.610;2023-06-22T06:14:37;44.80;;;21.35;;
9306;SDS011;4691;47.612;7.610;2023-06-22T06:25:07;45.88;;;19.27;;
9306;SDS011;4691;47.612;7.610;2023-06-22T06:27:44;42.88;;;19.80;;
9306;SDS011;4691;47.612;7.610;2023-06-22T06:30:25;50.10;;;21.98;;
9306;SDS011;4691;47.612;7.610;2023-06-22T06:32:53;52.10;;;21.17;;
9306;SDS011;4691;47.612;7.610;2023-06-22T06:35:21;44.40;;;21.25;;
9306;SDS011;4691;47.612;7.610;2023-06-22T06:37:58;55.85;;;22.58;;
9306;SDS011;4691;47.612;7.610;2023-06-22T06:40:27;49.10;;;25.40;;
9306;SDS011;4691;47.612;7.610;2023-06-22T06:43:01;50.58;;;25.55;;
9306;SDS011;4691;47.612;7.610;2023-06-22T06:45:27;52.33;;;27.60;;
9306;SDS011;4691;47.612;7.610;2023-06-22T06:47:58;53.80;;;25.48;;
9306;SDS011;4691;47.612;7.610;2023-06-22T06:50:24;48.00;;;25.70;;
9306;SDS011;4691;47.612;7.610;2023-06-22T06:52:50;46.72;;;25.40;;
9306;SDS011;4691;47.612;7.610;2023-06-22T06:55:26;48.05;;;24.70;;
9306;SDS011;4691;47.612;7.610;2023-06-22T07:00:22;47.28;;;24.30;;
9306;SDS011;4691;47.612;7.610;2023-06-22T07:03:03;43.00;;;25.00;;
9306;SDS011;4691;47.612;7.610;2023-06-22T07:05:31;51.30;;;25.45;;
9306;SDS011;4691;47.612;7.610;2023-06-22T07:08:00;50.92;;;26.85;;
9306;SDS011;4691;47.612;7.610;2023-06-22T07:10:29;38.95;;;23.70;;
9306;SDS011;4691;47.612;7.610;2023-06-22T07:13:04;51.35;;;24.35;;
9306;SDS011;4691;47.612;7.610;2023-06-22T07:15:41;43.55;;;22.48;;
9306;SDS011;4691;47.612;7.610;2023-06-22T07:21:01;34.38;;;17.30;;
9306;SDS011;4691;47.612;7.610;2023-06-22T07:23:39;38.70;;;16.88;;
9306;SDS011;4691;47.612;7.610;2023-06-22T07:26:07;36.75;;;16.45;;
9306;SDS011;4691;47.612;7.610;2023-06-22T07:28:37;37.28;;;20.15;;
9306;SDS011;4691;47.612;7.610;2023-06-22T07:31:06;33.38;;;17.58;;
9306;SDS011;4691;47.612;7.610;2023-06-22T07:33:42;40.38;;;19.05;;
9306;SDS011;4691;47.612;7.610;2023-06-22T07:36:16;37.70;;;18.35;;
9306;SDS011;4691;47.612;7.610;2023-06-22T07:38:42;43.10;;;20.63;;
9306;SDS011;4691;47.612;7.610;2023-06-22T07:41:19;39.17;;;18.77;;
9306;SDS011;4691;47.612;7.610;2023-06-22T07:44:08;42.35;;;19.35;;
9306;SDS011;4691;47.612;7.610;2023-06-22T07:46:36;42.42;;;19.95;;
9306;SDS011;4691;47.612;7.610;2023-06-22T07:49:05;34.53;;;20.08;;
9306;SDS011;4691;47.612;7.610;2023-06-22T07:51:36;40.88;;;17.73;;
9306;SDS011;4691;47.612;7.610;2023-06-22T07:54:19;38.58;;;16.95;;
9306;SDS011;4691;47.612;7.610;2023-06-22T07:56:49;28.47;;;14.87;;
9306;SDS011;4691;47.612;7.610;2023-06-22T07:59:15;30.23;;;14.45;;
9306;SDS011;4691;47.612;7.610;2023-06-22T08:01:43;26.98;;;13.80;;
9306;SDS011;4691;47.612;7.610;2023-06-22T08:04:14;32.33;;;13.60;;
9306;SDS011;4691;47.612;7.610;2023-06-22T08:06:42;29.13;;;13.32;;
9306;SDS011;4691;47.612;7.610;2023-06-22T08:09:10;27.90;;;12.07;;
9306;SDS011;4691;47.612;7.610;2023-06-22T08:11:37;27.98;;;12.15;;
9306;SDS011;4691;47.612;7.610;2023-06-22T08:14:02;25.27;;;11.98;;
9306;SDS011;4691;47.612;7.610;2023-06-22T08:16:31;25.90;;;13.18;;
9306;SDS011;4691;47.612;7.610;2023-06-22T08:18:56;28.13;;;12.57;;
9306;SDS011;4691;47.612;7.610;2023-06-22T08:21:22;27.52;;;13.15;;
9306;SDS011;4691;47.612;7.610;2023-06-22T08:23:48;25.08;;;12.05;;
9306;SDS011;4691;47.612;7.610;2023-06-22T08:26:16;30.38;;;13.05;;
9306;SDS011;4691;47.612;7.610;2023-06-22T08:28:49;24.95;;;12.75;;
9306;SDS011;4691;47.612;7.610;2023-06-22T08:31:22;35.42;;;11.98;;
9306;SDS011;4691;47.612;7.610;2023-06-22T08:34:03;26.90;;;12.13;;
9306;SDS011;4691;47.612;7.610;2023-06-22T08:36:29;25.35;;;12.60;;
9306;SDS011;4691;47.612;7.610;2023-06-22T08:39:10;27.08;;;12.05;;
9306;SDS011;4691;47.612;7.610;2023-06-22T08:41:38;29.00;;;12.40;;
9306;SDS011;4691;47.612;7.610;2023-06-22T08:44:12;24.08;;;12.38;;
9306;SDS011;4691;47.612;7.610;2023-06-22T08:46:38;25.10;;;13.40;;
9306;SDS011;4691;47.612;7.610;2023-06-22T08:49:05;28.42;;;11.77;;
9306;SDS011;4691;47.612;7.610;2023-06-22T08:51:40;28.10;;;12.30;;
9306;SDS011;4691;47.612;7.610;2023-06-22T08:54:06;23.65;;;11.82;;
9306;SDS011;4691;47.612;7.610;2023-06-22T08:56:32;30.52;;;12.63;;
9306;SDS011;4691;47.612;7.610;2023-06-22T08:58:57;33.72;;;11.88;;
9306;SDS011;4691;47.612;7.610;2023-06-22T09:01:28;26.13;;;11.35;;
9306;SDS011;4691;47.612;7.610;2023-06-22T09:04:02;34.58;;;12.68;;
9306;SDS011;4691;47.612;7.610;2023-06-22T09:06:33;24.90;;;12.63;;
9306;SDS011;4691;47.612;7.610;2023-06-22T09:08:58;31.70;;;11.18;;
9306;SDS011;4691;47.612;7.610;2023-06-22T09:11:24;28.60;;;11.55;;
9306;SDS011;4691;47.612;7.610;2023-06-22T09:13:50;25.98;;;11.82;;
9306;SDS011;4691;47.612;7.610;2023-06-22T09:16:19;31.17;;;11.50;;
9306;SDS011;4691;47.612;7.610;2023-06-22T09:18:50;39.25;;;13.50;;
9306;SDS011;4691;47.612;7.610;2023-06-22T09:21:23;27.53;;;11.70;;
9306;SDS011;4691;47.612;7.610;2023-06-22T09:23:51;25.30;;;12.43;;
9306;SDS011;4691;47.612;7.610;2023-06-22T09:26:26;23.20;;;11.57;;
9306;SDS011;4691;47.612;7.610;2023-06-22T09:28:57;31.40;;;12.52;;
9306;SDS011;4691;47.612;7.610;2023-06-22T09:31:31;23.67;;;11.93;;
9306;SDS011;4691;47.612;7.610;2023-06-22T09:33:59;28.10;;;11.35;;
9306;SDS011;4691;47.612;7.610;2023-06-22T09:36:33;28.88;;;11.82;;
9306;SDS011;4691;47.612;7.610;2023-06-22T09:39:09;25.83;;;11.00;;
9306;SDS011;4691;47.612;7.610;2023-06-22T09:41:46;24.40;;;12.18;;
9306;SDS011;4691;47.612;7.610;2023-06-22T09:44:17;33.47;;;13.88;;
9306;SDS011;4691;47.612;7.610;2023-06-22T09:46:46;30.33;;;11.25;;
9306;SDS011;4691;47.612;7.610;2023-06-22T09:49:38;29.05;;;11.73;;
9306;SDS011;4691;47.612;7.610;2023-06-22T09:52:06;29.38;;;11.43;;
9306;SDS011;4691;47.612;7.610;2023-06-22T09:54:36;24.73;;;11.48;;
9306;SDS011;4691;47.612;7.610;2023-06-22T09:57:04;25.70;;;11.38;;
9306;SDS011;4691;47.612;7.610;2023-06-22T09:59:39;28.13;;;11.35;;
9306;SDS011;4691;47.612;7.610;2023-06-22T10:02:52;26.50;;;11.45;;
9306;SDS011;4691;47.612;7.610;2023-06-22T10:05:35;34.47;;;12.35;;
9306;SDS011;4691;47.612;7.610;2023-06-22T10:08:04;36.28;;;14.43;;
9306;SDS011;4691;47.612;7.610;2023-06-22T10:10:37;26.38;;;11.50;;
9306;SDS011;4691;47.612;7.610;2023-06-22T10:13:07;28.85;;;12.18;;
9306;SDS011;4691;47.612;7.610;2023-06-22T10:15:41;21.48;;;10.80;;
9306;SDS011;4691;47.612;7.610;2023-06-22T10:18:19;34.10;;;12.27;;
9306;SDS011;4691;47.612;7.610;2023-06-22T10:20:53;37.03;;;12.52;;
9306;SDS011;4691;47.612;7.610;2023-06-22T10:23:21;23.47;;;11.10;;
9306;SDS011;4691;47.612;7.610;2023-06-22T10:25:52;25.38;;;11.57;;
9306;SDS011;4691;47.612;7.610;2023-06-22T10:28:18;27.67;;;11.77;;
9306;SDS011;4691;47.612;7.610;2023-06-22T10:30:46;27.92;;;12.73;;
9306;SDS011;4691;47.612;7.610;2023-06-22T10:33:12;28.65;;;12.02;;
9306;SDS011;4691;47.612;7.610;2023-06-22T10:35:53;29.17;;;11.57;;
9306;SDS011;4691;47.612;7.610;2023-06-22T10:38:30;34.30;;;11.77;;
9306;SDS011;4691;47.612;7.610;2023-06-22T10:41:07;32.78;;;12.48;;
9306;SDS011;4691;47.612;7.610;2023-06-22T10:43:43;36.13;;;13.15;;
9306;SDS011;4691;47.612;7.610;2023-06-22T10:46:09;31.75;;;12.43;;
9306;SDS011;4691;47.612;7.610;2023-06-22T10:48:34;29.05;;;12.02;;
9306;SDS011;4691;47.612;7.610;2023-06-22T10:51:00;30.80;;;11.95;;
9306;SDS011;4691;47.612;7.610;2023-06-22T10:53:27;27.92;;;12.57;;
9306;SDS011;4691;47.612;7.610;2023-06-22T10:56:26;28.48;;;11.40;;
9306;SDS011;4691;47.612;7.610;2023-06-22T10:59:01;32.42;;;12.20;;
9306;SDS011;4691;47.612;7.610;2023-06-22T11:01:27;35.88;;;13.13;;
9306;SDS011;4691;47.612;7.610;2023-06-22T11:04:05;27.77;;;12.63;;
9306;SDS011;4691;47.612;7.610;2023-06-22T11:06:33;28.30;;;13.00;;
9306;SDS011;4691;47.612;7.610;2023-06-22T11:09:02;27.57;;;12.63;;
9306;SDS011;4691;47.612;7.610;2023-06-22T11:11:31;25.65;;;12.10;;
9306;SDS011;4691;47.612;7.610;2023-06-22T11:14:02;29.23;;;12.23;;
9306;SDS011;4691;47.612;7.610;2023-06-22T11:16:33;33.80;;;12.70;;
9306;SDS011;4691;47.612;7.610;2023-06-22T11:19:07;32.63;;;13.05;;
9306;SDS011;4691;47.612;7.610;2023-06-22T11:21:38;33.60;;;14.05;;
9306;SDS011;4691;47.612;7.610;2023-06-22T11:24:06;28.33;;;13.38;;
9306;SDS011;4691;47.612;7.610;2023-06-22T11:26:32;31.70;;;13.67;;
9306;SDS011;4691;47.612;7.610;2023-06-22T11:29:09;32.80;;;14.02;;
9306;SDS011;4691;47.612;7.610;2023-06-22T11:31:59;42.17;;;13.90;;
9306;SDS011;4691;47.612;7.610;2023-06-22T11:34:29;33.72;;;13.57;;
9306;SDS011;4691;47.612;7.610;2023-06-22T11:37:00;26.42;;;12.68;;
9306;SDS011;4691;47.612;7.610;2023-06-22T11:39:27;30.33;;;13.48;;
9306;SDS011;4691;47.612;7.610;2023-06-22T11:42:04;33.42;;;14.13;;
9306;SDS011;4691;47.612;7.610;2023-06-22T11:44:33;37.20;;;13.82;;
9306;SDS011;4691;47.612;7.610;2023-06-22T11:47:04;24.65;;;12.70;;
9306;SDS011;4691;47.612;7.610;2023-06-22T11:51:58;22.95;;;12.27;;
9306;SDS011;4691;47.612;7.610;2023-06-22T11:54:35;25.27;;;12.43;;
9306;SDS011;4691;47.612;7.610;2023-06-22T11:57:04;26.88;;;11.73;;
9306;SDS011;4691;47.612;7.610;2023-06-22T11:59:31;33.50;;;12.73;;
9306;SDS011;4691;47.612;7.610;2023-06-22T12:02:00;41.70;;;13.43;;
9306;SDS011;4691;47.612;7.610;2023-06-22T12:04:29;41.50;;;14.93;;
9306;SDS011;4691;47.612;7.610;2023-06-22T12:07:05;40.17;;;19.13;;
9306;SDS011;4691;47.612;7.610;2023-06-22T12:09:48;44.72;;;18.38;;
9306;SDS011;4691;47.612;7.610;2023-06-22T12:12:16;36.53;;;17.25;;
9306;SDS011;4691;47.612;7.610;2023-06-22T12:14:56;46.22;;;18.15;;
9306;SDS011;4691;47.612;7.610;2023-06-22T12:17:29;37.33;;;19.05;;
9306;SDS011;4691;47.612;7.610;2023-06-22T12:19:59;38.35;;;19.73;;
9306;SDS011;4691;47.612;7.610;2023-06-22T12:22:28;40.25;;;19.05;;
9306;SDS011;4691;47.612;7.610;2023-06-22T12:24:58;37.55;;;18.23;;
9306;SDS011;4691;47.612;7.610;2023-06-22T12:29:52;42.45;;;17.25;;
9306;SDS011;4691;47.612;7.610;2023-06-22T12:32:23;34.75;;;16.02;;
9306;SDS011;4691;47.612;7.610;2023-06-22T12:35:02;25.98;;;13.52;;
9306;SDS011;4691;47.612;7.610;2023-06-22T12:40:18;29.95;;;12.68;;
9306;SDS011;4691;47.612;7.610;2023-06-22T12:42:55;28.90;;;12.75;;
9306;SDS011;4691;47.612;7.610;2023-06-22T12:45:21;30.75;;;13.45;;
9306;SDS011;4691;47.612;7.610;2023-06-22T12:47:56;32.83;;;12.68;;
9306;SDS011;4691;47.612;7.610;2023-06-22T12:50:24;31.52;;;14.73;;
9306;SDS011;4691;47.612;7.610;2023-06-22T12:52:59;40.97;;;17.08;;
9306;SDS011;4691;47.612;7.610;2023-06-22T12:55:27;31.60;;;14.82;;
9306;SDS011;4691;47.612;7.610;2023-06-22T12:57:52;40.15;;;15.07;;
9306;SDS011;4691;47.612;7.610;2023-06-22T13:00:28;36.17;;;13.53;;
9306;SDS011;4691;47.612;7.610;2023-06-22T13:02:56;35.97;;;14.40;;
9306;SDS011;4691;47.612;7.610;2023-06-22T13:05:27;28.58;;;12.68;;
9306;SDS011;4691;47.612;7.610;2023-06-22T13:08:01;33.67;;;13.05;;
9306;SDS011;4691;47.612;7.610;2023-06-22T13:10:36;30.08;;;14.75;;
9306;SDS011;4691;47.612;7.610;2023-06-22T13:13:06;49.20;;;13.63;;
9306;SDS011;4691;47.612;7.610;2023-06-22T13:15:38;29.15;;;12.10;;
9306;SDS011;4691;47.612;7.610;2023-06-22T13:18:12;30.05;;;11.73;;
9306;SDS011;4691;47.612;7.610;2023-06-22T13:20:45;29.50;;;11.32;;
9306;SDS011;4691;47.612;7.610;2023-06-22T13:23:11;35.20;;;12.27;;
9306;SDS011;4691;47.612;7.610;2023-06-22T13:25:37;43.22;;;12.77;;
9306;SDS011;4691;47.612;7.610;2023-06-22T13:28:10;35.80;;;12.32;;
9306;SDS011;4691;47.612;7.610;2023-06-22T13:30:46;36.60;;;12.05;;
9306;SDS011;4691;47.612;7.610;2023-06-22T13:33:26;36.47;;;13.07;;
9306;SDS011;4691;47.612;7.610;2023-06-22T13:36:01;42.83;;;14.35;;
9306;SDS011;4691;47.612;7.610;2023-06-22T13:38:28;35.92;;;13.43;;
9306;SDS011;4691;47.612;7.610;2023-06-22T13:41:09;34.75;;;14.32;;
9306;SDS011;4691;47.612;7.610;2023-06-22T13:43:40;36.42;;;14.68;;
9306;SDS011;4691;47.612;7.610;2023-06-22T13:46:08;51.08;;;14.68;;
9306;SDS011;4691;47.612;7.610;2023-06-22T13:48:39;34.75;;;13.75;;
9306;SDS011;4691;47.612;7.610;2023-06-22T13:51:05;31.73;;;13.63;;
9306;SDS011;4691;47.612;7.610;2023-06-22T13:53:34;32.60;;;13.95;;
9306;SDS011;4691;47.612;7.610;2023-06-22T13:56:20;32.67;;;14.45;;
9306;SDS011;4691;47.612;7.610;2023-06-22T13:58:58;31.80;;;13.73;;
9306;SDS011;4691;47.612;7.610;2023-06-22T14:01:27;39.00;;;14.63;;
9306;SDS011;4691;47.612;7.610;2023-06-22T14:04:05;33.47;;;13.27;;
9306;SDS011;4691;47.612;7.610;2023-06-22T14:06:46;32.42;;;12.82;;
9306;SDS011;4691;47.612;7.610;2023-06-22T14:09:15;28.10;;;13.68;;
9306;SDS011;4691;47.612;7.610;2023-06-22T14:11:48;36.00;;;14.73;;
9306;SDS011;4691;47.612;7.610;2023-06-22T14:14:27;36.15;;;14.07;;
9306;SDS011;4691;47.612;7.610;2023-06-22T14:16:55;32.03;;;13.73;;
9306;SDS011;4691;47.612;7.610;2023-06-22T14:19:27;30.73;;;12.43;;
9306;SDS011;4691;47.612;7.610;2023-06-22T14:22:02;34.40;;;12.43;;
9306;SDS011;4691;47.612;7.610;2023-06-22T14:24:31;32.97;;;12.25;;
9306;SDS011;4691;47.612;7.610;2023-06-22T14:27:05;34.05;;;12.77;;
9306;SDS011;4691;47.612;7.610;2023-06-22T14:29:36;28.25;;;13.10;;
9306;SDS011;4691;47.612;7.610;2023-06-22T14:32:05;48.00;;;13.95;;
9306;SDS011;4691;47.612;7.610;2023-06-22T14:34:34;36.03;;;12.88;;
9306;SDS011;4691;47.612;7.610;2023-06-22T14:37:07;30.23;;;13.00;;
9306;SDS011;4691;47.612;7.610;2023-06-22T14:39:38;34.65;;;13.15;;
9306;SDS011;4691;47.612;7.610;2023-06-22T14:42:12;29.08;;;12.27;;
9306;SDS011;4691;47.612;7.610;2023-06-22T14:45:02;32.67;;;12.32;;
9306;SDS011;4691;47.612;7.610;2023-06-22T14:47:42;34.08;;;12.43;;
9306;SDS011;4691;47.612;7.610;2023-06-22T14:50:19;33.22;;;11.63;;
9306;SDS011;4691;47.612;7.610;2023-06-22T14:52:52;28.45;;;12.07;;
9306;SDS011;4691;47.612;7.610;2023-06-22T14:55:28;29.08;;;12.00;;
9306;SDS011;4691;47.612;7.610;2023-06-22T14:58:01;37.58;;;12.90;;
9306;SDS011;4691;47.612;7.610;2023-06-22T15:00:30;38.40;;;12.10;;
9306;SDS011;4691;47.612;7.610;2023-06-22T15:02:58;32.83;;;11.52;;
9306;SDS011;4691;47.612;7.610;2023-06-22T15:05:24;29.30;;;11.80;;
9306;SDS011;4691;47.612;7.610;2023-06-22T15:07:55;33.83;;;12.18;;
9306;SDS011;4691;47.612;7.610;2023-06-22T15:10:30;27.23;;;12.35;;
9306;SDS011;4691;47.612;7.610;2023-06-22T15:13:14;32.53;;;13.13;;
9306;SDS011;4691;47.612;7.610;2023-06-22T15:15:49;28.25;;;11.85;;
9306;SDS011;4691;47.612;7.610;2023-06-22T15:18:29;29.15;;;12.40;;
9306;SDS011;4691;47.612;7.610;2023-06-22T15:21:01;37.50;;;12.82;;
9306;SDS011;4691;47.612;7.610;2023-06-22T15:23:34;29.13;;;13.38;;
9306;SDS011;4691;47.612;7.610;2023-06-22T15:26:10;36.20;;;13.25;;
9306;SDS011;4691;47.612;7.610;2023-06-22T15:28:43;32.67;;;13.20;;
9306;SDS011;4691;47.612;7.610;2023-06-22T15:31:09;38.55;;;14.82;;
9306;SDS011;4691;47.612;7.610;2023-06-22T15:33:42;33.63;;;14.38;;
9306;SDS011;4691;47.612;7.610;2023-06-22T15:36:08;34.25;;;14.50;;
9306;SDS011;4691;47.612;7.610;2023-06-22T15:38:39;30.80;;;13.15;;
9306;SDS011;4691;47.612;7.610;2023-06-22T15:41:08;35.95;;;13.40;;
9306;SDS011;4691;47.612;7.610;2023-06-22T15:46:26;40.50;;;13.20;;
9306;SDS011;4691;47.612;7.610;2023-06-22T15:49:04;33.17;;;13.15;;
9306;SDS011;4691;47.612;7.610;2023-06-22T15:51:33;33.85;;;12.25;;
9306;SDS011;4691;47.612;7.610;2023-06-22T15:54:12;26.90;;;11.75;;
9306;SDS011;4691;47.612;7.610;2023-06-22T15:57:17;31.85;;;12.63;;
9306;SDS011;4691;47.612;7.610;2023-06-22T15:59:45;28.85;;;12.05;;